Time;durP1;ratioP1;P1;durP2;ratioP2;P2;SDS_P1;SDS_P2;PMS_P1;PMS_P2;Temp;Humidity;BMP_temperature;BMP_pressure;BME280_temperature;BME280_humidity;BME280_pressure;Samples;Min_cycle;Max_cycle;Signal;HPM_P1;HPM_P2
2023/10/23 00:02:00;;;;;;;1.30;1.30;;;;;;;;;;5066512;28;20476;-72
2023/10/23 00:04:26;;;;;;;1.10;1.10;;;;;;;;;;5067439;28;20558;-72
2023/10/23 00:06:52;;;;;;;2.87;0.83;;;;;;;;;;5066622;28;20526;-72
2023/10/23 00:09:18;;;;;;;0.87;0.87;;;;;;;;;;5066844;28;20437;-71
2023/10/23 00:11:44;;;;;;;1.80;1.27;;;;;;;;;;5066682;28;20913;-69
2023/10/23 00:14:10;;;;;;;2.20;0.90;;;;;;;;;;5067629;28;20433;-69
2023/10/23 00:16:36;;;;;;;6.13;1.27;;;;;;;;;;5066937;28;20929;-70
2023/10/23 00:19:02;;;;;;;1.03;0.93;;;;;;;;;;5064952;28;20442;-71
2023/10/23 00:21:28;;;;;;;3.90;1.30;;;;;;;;;;5067363;28;20436;-70
2023/10/23 00:23:54;;;;;;;1.40;1.40;;;;;;;;;;5066612;28;21038;-70
2023/10/23 00:26:20;;;;;;;2.20;1.40;;;;;;;;;;5067214;28;20480;-71
2023/10/23 00:28:46;;;;;;;2.53;1.30;;;;;;;;;;5065947;28;20434;-71
2023/10/23 00:31:12;;;;;;;5.33;1.20;;;;;;;;;;5066599;28;20449;-70
2023/10/23 00:33:38;;;;;;;1.13;1.13;;;;;;;;;;5065300;28;21175;-70
2023/10/23 00:36:04;;;;;;;13.50;1.67;;;;;;;;;;5066910;28;20429;-72
2023/10/23 00:38:30;;;;;;;1.33;1.10;;;;;;;;;;5066808;28;20429;-73
2023/10/23 00:40:56;;;;;;;1.30;1.20;;;;;;;;;;5067063;28;20447;-69
2023/10/23 00:43:23;;;;;;;1.27;0.80;;;;;;;;;;5066253;28;20953;-70
2023/10/23 00:45:51;;;;;;;1.10;1.10;;;;;;;;;;5066861;28;20502;-70
2023/10/23 00:48:20;;;;;;;8.93;1.20;;;;;;;;;;5065838;28;20430;-71
2023/10/23 00:50:46;;;;;;;3.80;1.27;;;;;;;;;;5066413;28;20472;-71
2023/10/23 00:53:12;;;;;;;1.00;1.00;;;;;;;;;;5066827;28;20429;-69
2023/10/23 00:55:39;;;;;;;1.13;1.03;;;;;;;;;;5063697;28;20445;-70
2023/10/23 00:58:05;;;;;;;1.27;1.17;;;;;;;;;;5065611;28;20480;-69
2023/10/23 01:00:31;;;;;;;1.50;1.00;;;;;;;;;;5069139;28;21000;-70
2023/10/23 01:02:57;;;;;;;3.40;1.00;;;;;;;;;;5070727;28;20769;-72
2023/10/23 01:05:23;;;;;;;3.13;1.10;;;;;;;;;;5068220;28;20542;-71
2023/10/23 01:07:49;;;;;;;3.80;0.80;;;;;;;;;;5070688;28;20921;-73
2023/10/23 01:10:15;;;;;;;3.63;0.77;;;;;;;;;;5070682;28;20445;-72
2023/10/23 01:12:41;;;;;;;7.33;1.00;;;;;;;;;;5070246;28;20443;-70
2023/10/23 01:15:07;;;;;;;3.60;0.70;;;;;;;;;;5070331;28;20445;-72
2023/10/23 01:17:33;;;;;;;1.20;1.20;;;;;;;;;;5070313;28;20936;-73
2023/10/23 01:19:59;;;;;;;1.33;0.80;;;;;;;;;;5069723;28;20452;-72
2023/10/23 01:22:25;;;;;;;0.87;0.87;;;;;;;;;;5070246;28;20457;-72
2023/10/23 01:24:51;;;;;;;0.90;0.90;;;;;;;;;;5069682;28;20488;-71
2023/10/23 01:27:17;;;;;;;2.83;0.80;;;;;;;;;;5069122;28;20454;-73
2023/10/23 01:29:43;;;;;;;2.47;0.90;;;;;;;;;;5069653;28;20952;-69
2023/10/23 01:32:10;;;;;;;1.47;1.30;;;;;;;;;;5069809;28;20425;-68
2023/10/23 01:34:36;;;;;;;5.23;1.90;;;;;;;;;;5068817;28;20425;-69
2023/10/23 01:37:02;;;;;;;0.80;0.80;;;;;;;;;;5069943;28;20417;-70
2023/10/23 01:39:28;;;;;;;2.23;0.80;;;;;;;;;;5069314;28;20448;-70
2023/10/23 01:41:54;;;;;;;3.50;1.10;;;;;;;;;;5068886;28;20456;-69
2023/10/23 01:44:20;;;;;;;0.80;0.80;;;;;;;;;;5069751;28;20996;-71
2023/10/23 01:46:46;;;;;;;0.93;0.93;;;;;;;;;;5069201;28;20452;-69
2023/10/23 01:49:12;;;;;;;1.00;0.90;;;;;;;;;;5069462;28;20852;-69
2023/10/23 01:51:38;;;;;;;6.03;1.97;;;;;;;;;;5069876;28;20449;-71
2023/10/23 01:54:04;;;;;;;3.23;0.90;;;;;;;;;;5068165;28;20866;-71
2023/10/23 01:56:30;;;;;;;0.90;0.90;;;;;;;;;;5082320;28;20998;-69
2023/10/23 01:58:56;;;;;;;1.03;0.70;;;;;;;;;;5068981;28;20444;-71
2023/10/23 02:01:23;;;;;;;2.23;1.20;;;;;;;;;;5069040;28;20445;-70
2023/10/23 02:03:49;;;;;;;1.33;1.33;;;;;;;;;;5069630;28;20564;-74
2023/10/23 02:06:16;;;;;;;1.90;0.73;;;;;;;;;;5067033;28;20449;-70
2023/10/23 02:08:42;;;;;;;1.37;0.70;;;;;;;;;;5068702;28;20441;-71
2023/10/23 02:11:08;;;;;;;0.90;0.90;;;;;;;;;;5077201;28;20879;-69
2023/10/23 02:13:35;;;;;;;1.33;1.33;;;;;;;;;;5077030;28;20975;-69
2023/10/23 02:16:01;;;;;;;1.17;0.90;;;;;;;;;;5067392;28;20806;-71
2023/10/23 02:18:27;;;;;;;1.07;1.07;;;;;;;;;;5067896;28;20442;-70
2023/10/23 02:20:53;;;;;;;1.00;1.00;;;;;;;;;;5068300;28;20433;-71
2023/10/23 02:23:19;;;;;;;1.20;1.20;;;;;;;;;;5068951;28;20428;-69
2023/10/23 02:25:46;;;;;;;3.17;1.00;;;;;;;;;;5069653;28;20821;-69
2023/10/23 02:28:13;;;;;;;0.90;0.90;;;;;;;;;;5067449;28;20550;-70
2023/10/23 02:30:40;;;;;;;2.03;1.10;;;;;;;;;;5068535;28;20441;-72
2023/10/23 02:33:05;;;;;;;0.90;0.90;;;;;;;;;;5068844;28;20524;-70
2023/10/23 02:35:35;;;;;;;2.20;1.57;;;;;;;;;;5068443;28;20823;-70
2023/10/23 02:38:01;;;;;;;1.33;1.23;;;;;;;;;;5068480;28;20441;-71
2023/10/23 02:40:27;;;;;;;1.13;1.03;;;;;;;;;;5068362;28;20425;-70
2023/10/23 02:42:53;;;;;;;0.87;0.87;;;;;;;;;;5067896;28;20532;-70
2023/10/23 02:45:19;;;;;;;3.23;1.33;;;;;;;;;;5069213;28;20627;-73
2023/10/23 02:47:45;;;;;;;1.07;0.97;;;;;;;;;;5068359;28;20441;-70
2023/10/23 02:50:11;;;;;;;1.50;1.07;;;;;;;;;;5068162;28;20452;-72
2023/10/23 02:52:37;;;;;;;0.97;0.97;;;;;;;;;;5068112;28;20425;-70
2023/10/23 02:55:03;;;;;;;1.40;0.90;;;;;;;;;;5068110;28;20456;-70
2023/10/23 02:57:29;;;;;;;0.97;0.97;;;;;;;;;;5067466;28;20476;-73
2023/10/23 02:59:56;;;;;;;2.67;0.97;;;;;;;;;;5067793;28;20429;-73
2023/10/23 03:02:22;;;;;;;1.07;1.07;;;;;;;;;;5067126;28;20458;-71
2023/10/23 03:04:48;;;;;;;0.77;0.77;;;;;;;;;;5067720;28;20870;-71
2023/10/23 03:07:14;;;;;;;1.27;1.27;;;;;;;;;;5068250;28;20437;-71
2023/10/23 03:09:41;;;;;;;1.30;1.20;;;;;;;;;;5067849;28;20449;-69
2023/10/23 03:12:07;;;;;;;0.90;0.90;;;;;;;;;;5067546;28;20438;-71
2023/10/23 03:14:34;;;;;;;6.57;1.23;;;;;;;;;;5068472;28;20445;-70
2023/10/23 03:17:00;;;;;;;1.37;1.23;;;;;;;;;;5066264;28;20441;-72
2023/10/23 03:19:26;;;;;;;1.00;1.00;;;;;;;;;;5067989;28;20429;-70
2023/10/23 03:21:52;;;;;;;1.07;1.07;;;;;;;;;;5066986;28;20444;-70
2023/10/23 03:24:18;;;;;;;0.77;0.77;;;;;;;;;;5076653;28;20553;-70
2023/10/23 03:26:44;;;;;;;2.43;1.57;;;;;;;;;;5067344;28;20429;-71
2023/10/23 03:29:10;;;;;;;1.40;1.30;;;;;;;;;;5067069;28;20476;-73
2023/10/23 03:31:36;;;;;;;0.77;0.77;;;;;;;;;;5067489;28;20458;-71
2023/10/23 03:34:02;;;;;;;6.17;1.17;;;;;;;;;;5068083;28;20495;-72
2023/10/23 03:36:28;;;;;;;1.13;1.13;;;;;;;;;;5067524;28;20429;-71
2023/10/23 03:38:55;;;;;;;1.70;1.60;;;;;;;;;;5067097;28;20446;-72
2023/10/23 03:41:21;;;;;;;0.97;0.97;;;;;;;;;;5067197;28;20464;-71
2023/10/23 03:43:47;;;;;;;1.60;1.00;;;;;;;;;;5066588;28;20840;-71
2023/10/23 03:46:13;;;;;;;2.83;1.90;;;;;;;;;;5066922;28;20449;-72
2023/10/23 03:48:39;;;;;;;1.03;1.00;;;;;;;;;;5064972;28;20441;-71
2023/10/23 03:51:05;;;;;;;1.60;1.60;;;;;;;;;;5067470;28;20429;-72
2023/10/23 03:53:31;;;;;;;3.33;1.40;;;;;;;;;;5066445;28;20949;-73
2023/10/23 03:55:57;;;;;;;1.20;1.10;;;;;;;;;;5067188;28;20546;-72
2023/10/23 03:58:23;;;;;;;4.00;1.90;;;;;;;;;;5066216;28;20441;-69
2023/10/23 04:00:53;;;;;;;3.87;1.53;;;;;;;;;;5066031;28;20965;-71
2023/10/23 04:03:19;;;;;;;0.80;0.80;;;;;;;;;;5067549;28;20558;-70
2023/10/23 04:05:45;;;;;;;0.70;0.70;;;;;;;;;;5066856;28;21040;-72
2023/10/23 04:08:11;;;;;;;1.00;1.00;;;;;;;;;;5067300;28;20432;-71
2023/10/23 04:10:36;;;;;;;4.50;1.43;;;;;;;;;;5066615;28;20481;-73
2023/10/23 04:13:02;;;;;;;3.17;1.13;;;;;;;;;;5067657;28;20459;-72
2023/10/23 04:15:28;;;;;;;1.83;1.10;;;;;;;;;;5066705;28;20445;-70
2023/10/23 04:17:54;;;;;;;0.83;0.83;;;;;;;;;;5067500;28;20433;-71
2023/10/23 04:20:20;;;;;;;3.80;1.00;;;;;;;;;;5066557;28;20448;-73
2023/10/23 04:22:46;;;;;;;3.93;2.87;;;;;;;;;;5065966;28;20881;-72
2023/10/23 04:25:12;;;;;;;8.23;1.57;;;;;;;;;;5066202;28;20480;-70
2023/10/23 04:27:38;;;;;;;1.60;1.60;;;;;;;;;;5066947;28;20432;-69
2023/10/23 04:30:04;;;;;;;1.70;0.97;;;;;;;;;;5081623;28;20442;-72
2023/10/23 04:32:30;;;;;;;1.17;1.07;;;;;;;;;;5066293;28;20453;-70
2023/10/23 04:34:56;;;;;;;3.83;1.30;;;;;;;;;;5069011;28;20468;-70
2023/10/23 04:37:22;;;;;;;1.10;1.10;;;;;;;;;;5071631;28;20437;-71
2023/10/23 04:39:48;;;;;;;1.10;1.10;;;;;;;;;;5070231;28;20441;-70
2023/10/23 04:42:14;;;;;;;1.70;1.43;;;;;;;;;;5069099;28;20491;-69
2023/10/23 04:44:40;;;;;;;2.47;1.00;;;;;;;;;;5070111;28;20492;-69
2023/10/23 04:47:06;;;;;;;4.33;1.37;;;;;;;;;;5071331;28;21067;-70
2023/10/23 04:49:32;;;;;;;3.80;1.53;;;;;;;;;;5067485;28;20987;-69
2023/10/23 04:51:58;;;;;;;4.33;2.17;;;;;;;;;;5068620;28;20492;-69
2023/10/23 04:54:24;;;;;;;1.87;1.70;;;;;;;;;;5070269;28;20498;-69
2023/10/23 04:56:50;;;;;;;2.57;1.10;;;;;;;;;;5070315;28;20469;-68
2023/10/23 04:59:16;;;;;;;2.77;1.60;;;;;;;;;;5069579;28;20525;-68
2023/10/23 05:01:42;;;;;;;1.63;1.53;;;;;;;;;;5069414;28;21121;-68
2023/10/23 05:04:08;;;;;;;2.30;1.80;;;;;;;;;;5070054;28;20932;-68
2023/10/23 05:06:34;;;;;;;5.90;2.70;;;;;;;;;;5067817;28;20436;-70
2023/10/23 05:09:00;;;;;;;5.80;2.43;;;;;;;;;;5069646;28;20444;-68
2023/10/23 05:11:27;;;;;;;2.00;1.90;;;;;;;;;;5070851;28;20796;-69
2023/10/23 05:13:53;;;;;;;12.03;2.40;;;;;;;;;;5069614;28;20429;-68
2023/10/23 05:16:19;;;;;;;2.10;2.00;;;;;;;;;;5071205;28;20434;-69
2023/10/23 05:18:45;;;;;;;3.80;2.63;;;;;;;;;;5070578;28;20436;-69
2023/10/23 05:21:12;;;;;;;2.30;2.20;;;;;;;;;;5069747;28;20445;-68
2023/10/23 05:23:39;;;;;;;3.90;1.77;;;;;;;;;;5070582;28;20436;-69
2023/10/23 05:26:05;;;;;;;9.10;1.30;;;;;;;;;;5070318;28;20441;-71
2023/10/23 05:28:31;;;;;;;1.00;1.00;;;;;;;;;;5069783;28;20436;-70
2023/10/23 05:30:57;;;;;;;1.57;1.43;;;;;;;;;;5069322;28;20449;-68
2023/10/23 05:33:23;;;;;;;3.10;2.40;;;;;;;;;;5070068;28;20481;-70
2023/10/23 05:35:49;;;;;;;2.63;2.20;;;;;;;;;;5069538;28;20444;-69
2023/10/23 05:38:15;;;;;;;2.47;2.37;;;;;;;;;;5069661;28;20445;-69
2023/10/23 05:40:41;;;;;;;4.57;3.20;;;;;;;;;;5070233;28;20429;-68
2023/10/23 05:43:07;;;;;;;1.77;1.70;;;;;;;;;;5069129;28;20529;-69
2023/10/23 05:45:36;;;;;;;2.60;2.50;;;;;;;;;;5068217;28;20484;-68
2023/10/23 05:48:02;;;;;;;2.93;2.73;;;;;;;;;;5068290;28;20461;-68
2023/10/23 05:50:28;;;;;;;1.63;1.63;;;;;;;;;;5069620;28;20467;-68
2023/10/23 05:52:54;;;;;;;1.47;1.10;;;;;;;;;;5070289;28;20792;-68
2023/10/23 05:55:20;;;;;;;3.53;0.90;;;;;;;;;;5069258;28;20433;-68
2023/10/23 05:57:46;;;;;;;3.07;1.60;;;;;;;;;;5062927;28;20572;-69
2023/10/23 06:00:13;;;;;;;2.00;1.90;;;;;;;;;;5068269;28;20597;-68
2023/10/23 06:02:39;;;;;;;2.83;2.60;;;;;;;;;;5065741;28;20453;-68
2023/10/23 06:05:05;;;;;;;6.67;4.17;;;;;;;;;;5067825;28;20477;-68
2023/10/23 06:07:31;;;;;;;2.90;2.70;;;;;;;;;;5068766;28;20457;-68
2023/10/23 06:09:58;;;;;;;2.60;2.33;;;;;;;;;;5059673;28;20933;-68
2023/10/23 06:12:25;;;;;;;2.03;1.93;;;;;;;;;;5069416;28;20510;-68
2023/10/23 06:14:51;;;;;;;2.63;1.53;;;;;;;;;;5066379;28;20421;-68
2023/10/23 06:17:17;;;;;;;1.77;1.67;;;;;;;;;;5070109;28;20936;-67
2023/10/23 06:19:43;;;;;;;2.30;2.10;;;;;;;;;;5067343;28;20464;-69
2023/10/23 06:22:09;;;;;;;1.93;1.93;;;;;;;;;;5069051;28;20528;-69
2023/10/23 06:24:35;;;;;;;2.40;2.30;;;;;;;;;;5070534;28;20513;-68
2023/10/23 06:27:02;;;;;;;2.07;1.97;;;;;;;;;;5070157;28;20441;-69
2023/10/23 06:29:28;;;;;;;3.27;2.30;;;;;;;;;;5073041;28;20436;-71
2023/10/23 06:31:56;;;;;;;1.47;1.20;;;;;;;;;;5071568;28;20438;-69
2023/10/23 06:34:21;;;;;;;0.90;0.90;;;;;;;;;;5069413;28;21520;-69
2023/10/23 06:36:48;;;;;;;3.93;1.60;;;;;;;;;;5068893;28;20486;-69
2023/10/23 06:39:14;;;;;;;2.43;1.97;;;;;;;;;;5070209;28;20471;-69
2023/10/23 06:41:39;;;;;;;3.47;1.57;;;;;;;;;;5070361;28;20865;-69
2023/10/23 06:44:05;;;;;;;2.00;1.73;;;;;;;;;;5070417;28;20468;-68
2023/10/23 06:46:31;;;;;;;2.10;2.00;;;;;;;;;;5070378;28;20445;-69
2023/10/23 06:48:57;;;;;;;2.97;2.80;;;;;;;;;;5069154;28;20929;-70
2023/10/23 06:51:23;;;;;;;2.10;1.97;;;;;;;;;;5071587;28;20448;-68
2023/10/23 06:53:49;;;;;;;3.13;2.93;;;;;;;;;;5070701;28;20917;-71
2023/10/23 06:56:15;;;;;;;2.90;2.70;;;;;;;;;;5069535;28;20876;-70
2023/10/23 06:58:41;;;;;;;4.57;4.27;;;;;;;;;;5068689;28;20440;-69
2023/10/23 07:01:08;;;;;;;4.00;3.83;;;;;;;;;;5068206;28;20563;-68
2023/10/23 07:03:34;;;;;;;9.40;2.73;;;;;;;;;;5069758;28;20429;-68
2023/10/23 07:06:04;;;;;;;4.13;3.30;;;;;;;;;;5067974;28;20526;-72
2023/10/23 07:08:30;;;;;;;2.47;2.27;;;;;;;;;;5068690;28;20425;-71
2023/10/23 07:10:56;;;;;;;3.23;3.03;;;;;;;;;;5070329;28;20467;-69
2023/10/23 07:13:22;;;;;;;3.70;3.00;;;;;;;;;;5068775;28;20464;-69
2023/10/23 07:15:48;;;;;;;3.80;2.80;;;;;;;;;;5070684;28;21000;-70
2023/10/23 07:18:14;;;;;;;6.10;1.97;;;;;;;;;;5068125;28;20516;-70
2023/10/23 07:20:40;;;;;;;2.23;1.63;;;;;;;;;;5068901;28;20550;-72
2023/10/23 07:23:06;;;;;;;1.57;1.57;;;;;;;;;;5069402;28;20433;-69
2023/10/23 07:25:32;;;;;;;0.70;0.70;;;;;;;;;;5068930;28;20565;-70
2023/10/23 07:27:58;;;;;;;4.00;1.73;;;;;;;;;;5069301;28;20528;-71
2023/10/23 07:30:25;;;;;;;4.97;4.60;;;;;;;;;;5069847;28;20463;-69
2023/10/23 07:32:51;;;;;;;5.77;3.57;;;;;;;;;;5069727;28;20536;-69
2023/10/23 07:35:17;;;;;;;1.10;1.10;;;;;;;;;;5071424;28;20890;-72
2023/10/23 07:37:43;;;;;;;2.67;1.50;;;;;;;;;;5067212;28;20437;-70
2023/10/23 07:40:09;;;;;;;2.00;1.50;;;;;;;;;;5065158;28;20525;-71
2023/10/23 07:42:35;;;;;;;1.87;1.87;;;;;;;;;;5069278;28;20513;-68
2023/10/23 07:45:01;;;;;;;1.77;1.67;;;;;;;;;;5069135;28;20579;-72
2023/10/23 07:47:30;;;;;;;1.73;1.63;;;;;;;;;;5070595;28;20551;-70
2023/10/23 07:49:56;;;;;;;4.83;3.50;;;;;;;;;;5068531;28;20451;-69
2023/10/23 07:52:22;;;;;;;8.53;5.30;;;;;;;;;;5070056;28;20437;-70
2023/10/23 07:54:47;;;;;;;5.90;4.00;;;;;;;;;;5071034;28;20441;-69
2023/10/23 07:57:13;;;;;;;5.23;2.30;;;;;;;;;;5070324;28;20469;-70
2023/10/23 07:59:40;;;;;;;1.60;1.47;;;;;;;;;;5069110;28;20461;-71
2023/10/23 08:02:06;;;;;;;4.03;1.37;;;;;;;;;;5055800;28;21196;-70
2023/10/23 08:04:33;;;;;;;2.17;1.50;;;;;;;;;;5071524;28;20488;-69
2023/10/23 08:06:59;;;;;;;4.90;2.80;;;;;;;;;;5068598;28;20431;-70
2023/10/23 08:09:28;;;;;;;2.97;2.10;;;;;;;;;;5067834;28;20476;-73
2023/10/23 08:11:54;;;;;;;4.50;3.10;;;;;;;;;;5066860;28;21115;-69
2023/10/23 08:14:20;;;;;;;4.03;2.40;;;;;;;;;;5069005;28;20433;-69
2023/10/23 08:16:47;;;;;;;2.03;1.87;;;;;;;;;;5066334;28;20536;-69
2023/10/23 08:19:13;;;;;;;2.53;2.27;;;;;;;;;;5066897;28;20958;-69
2023/10/23 08:21:39;;;;;;;7.33;1.70;;;;;;;;;;5070423;28;20609;-70
2023/10/23 08:24:05;;;;;;;1.60;1.27;;;;;;;;;;5066276;28;21138;-69
2023/10/23 08:26:31;;;;;;;5.30;1.17;;;;;;;;;;5069361;28;20491;-70
2023/10/23 08:28:57;;;;;;;2.40;1.30;;;;;;;;;;5067754;28;20426;-69
2023/10/23 08:31:23;;;;;;;4.30;1.10;;;;;;;;;;5068534;28;20824;-69
2023/10/23 08:33:49;;;;;;;1.40;1.40;;;;;;;;;;5069322;28;20444;-68
2023/10/23 08:36:15;;;;;;;1.70;1.57;;;;;;;;;;5066567;28;20437;-68
2023/10/23 08:38:41;;;;;;;1.90;1.47;;;;;;;;;;5068039;28;20813;-68
2023/10/23 08:41:10;;;;;;;2.20;1.87;;;;;;;;;;5068097;28;20442;-69
2023/10/23 08:43:36;;;;;;;1.83;1.73;;;;;;;;;;5068045;28;20805;-71
2023/10/23 08:46:02;;;;;;;2.60;2.00;;;;;;;;;;5067823;28;20446;-73
2023/10/23 08:48:28;;;;;;;4.67;1.90;;;;;;;;;;5067828;28;20452;-72
2023/10/23 08:50:58;;;;;;;4.70;2.40;;;;;;;;;;5069287;28;20452;-71
2023/10/23 08:53:32;;;;;;;3.53;1.83;;;;;;;;;;5069215;28;20441;-69
2023/10/23 08:55:59;;;;;;;10.47;2.00;;;;;;;;;;5070552;28;20432;-70
2023/10/23 08:58:26;;;;;;;2.90;1.60;;;;;;;;;;5068125;28;20433;-69
2023/10/23 09:00:52;;;;;;;2.03;1.93;;;;;;;;;;5065848;28;20524;-71
2023/10/23 09:03:19;;;;;;;2.40;2.30;;;;;;;;;;5068094;28;20858;-71
2023/10/23 09:05:45;;;;;;;3.93;2.10;;;;;;;;;;5065988;28;20493;-69
2023/10/23 09:08:11;;;;;;;2.40;2.20;;;;;;;;;;5067098;28;21008;-71
2023/10/23 09:10:56;;;;;;;2.00;1.90;;;;;;;;;;5068925;28;20461;-73
2023/10/23 09:13:24;;;;;;;5.37;2.20;;;;;;;;;;5069684;28;20464;-72
2023/10/23 09:15:50;;;;;;;4.73;1.07;;;;;;;;;;5073215;28;20432;-68
2023/10/23 09:18:16;;;;;;;1.90;1.80;;;;;;;;;;5073213;28;20448;-69
2023/10/23 09:20:43;;;;;;;2.07;1.77;;;;;;;;;;5076719;28;20433;-70
2023/10/23 09:23:12;;;;;;;3.37;1.80;;;;;;;;;;5070837;28;20520;-73
2023/10/23 09:25:38;;;;;;;1.30;1.20;;;;;;;;;;5077129;28;20495;-73
2023/10/23 09:28:10;;;;;;;1.60;1.53;;;;;;;;;;5070823;28;20441;-70
2023/10/23 09:30:36;;;;;;;2.17;2.00;;;;;;;;;;5071856;28;20442;-69
2023/10/23 09:33:02;;;;;;;7.00;1.70;;;;;;;;;;5074579;28;20489;-71
2023/10/23 09:35:29;;;;;;;4.60;1.90;;;;;;;;;;5077576;28;20898;-71
2023/10/23 09:37:57;;;;;;;2.20;2.03;;;;;;;;;;5071591;28;20452;-71
2023/10/23 09:40:24;;;;;;;2.40;1.97;;;;;;;;;;5076438;28;20448;-62
2023/10/23 09:42:51;;;;;;;5.80;2.87;;;;;;;;;;5087689;28;20432;-70
2023/10/23 09:45:17;;;;;;;6.47;2.20;;;;;;;;;;5091378;28;20588;-68
2023/10/23 09:47:46;;;;;;;11.13;2.23;;;;;;;;;;5083697;28;20432;-72
2023/10/23 09:50:12;;;;;;;2.27;2.23;;;;;;;;;;5070876;28;20421;-72
2023/10/23 09:52:39;;;;;;;4.03;2.37;;;;;;;;;;5072031;28;21167;-72
2023/10/23 09:55:09;;;;;;;4.53;2.37;;;;;;;;;;5072263;28;20495;-69
2023/10/23 09:57:39;;;;;;;5.70;3.07;;;;;;;;;;5072392;28;20571;-70
2023/10/23 10:00:17;;;;;;;2.20;2.10;;;;;;;;;;5071451;28;20437;-71
2023/10/23 10:02:53;;;;;;;2.23;2.13;;;;;;;;;;5070728;28;20444;-69
2023/10/23 10:05:27;;;;;;;2.07;1.90;;;;;;;;;;5071814;28;21005;-72
2023/10/23 10:07:59;;;;;;;5.90;2.63;;;;;;;;;;5071132;28;20429;-72
2023/10/23 10:10:27;;;;;;;2.13;2.03;;;;;;;;;;5070165;28;20952;-68
2023/10/23 10:12:55;;;;;;;3.37;2.67;;;;;;;;;;5071867;28;20509;-72
2023/10/23 10:15:22;;;;;;;3.50;2.50;;;;;;;;;;5070786;28;20941;-69
2023/10/23 10:17:49;;;;;;;2.53;2.33;;;;;;;;;;5070938;28;20430;-69
2023/10/23 10:20:15;;;;;;;2.03;1.93;;;;;;;;;;5069452;28;20794;-69
2023/10/23 10:22:43;;;;;;;2.70;2.50;;;;;;;;;;5071844;28;20441;-68
2023/10/23 10:25:11;;;;;;;2.57;2.13;;;;;;;;;;5072688;28;20573;-70
2023/10/23 10:27:37;;;;;;;9.03;6.47;;;;;;;;;;5067928;28;20441;-69
2023/10/23 10:30:07;;;;;;;2.87;2.10;;;;;;;;;;5070034;28;20445;-73
2023/10/23 10:32:34;;;;;;;2.57;2.47;;;;;;;;;;5069819;28;20429;-70
2023/10/23 10:35:03;;;;;;;11.23;2.30;;;;;;;;;;5070765;28;20449;-70
2023/10/23 10:37:32;;;;;;;5.37;2.70;;;;;;;;;;5072060;28;20440;-73
2023/10/23 10:39:58;;;;;;;3.00;2.80;;;;;;;;;;5072973;28;20428;-69
2023/10/23 10:42:25;;;;;;;3.60;3.20;;;;;;;;;;5071872;28;20443;-68
2023/10/23 10:44:57;;;;;;;6.50;3.67;;;;;;;;;;5070415;28;20481;-72
2023/10/23 10:47:43;;;;;;;2.77;2.57;;;;;;;;;;5071159;28;20449;-71
2023/10/23 10:50:10;;;;;;;3.83;3.10;;;;;;;;;;5071335;28;20543;-69
2023/10/23 10:52:37;;;;;;;7.53;2.70;;;;;;;;;;5067364;28;20886;-73
2023/10/23 10:55:09;;;;;;;3.63;2.87;;;;;;;;;;5069755;28;20452;-69
2023/10/23 10:57:37;;;;;;;8.83;4.43;;;;;;;;;;5069282;28;20841;-69
2023/10/23 11:00:03;;;;;;;6.07;4.10;;;;;;;;;;5070864;28;20457;-68
2023/10/23 11:02:29;;;;;;;5.07;4.67;;;;;;;;;;5068919;28;20433;-68
2023/10/23 11:04:56;;;;;;;6.43;5.20;;;;;;;;;;5068534;28;20503;-68
2023/10/23 11:07:23;;;;;;;5.80;4.77;;;;;;;;;;5068008;28;20529;-72
2023/10/23 11:09:50;;;;;;;10.70;4.93;;;;;;;;;;5067565;28;20448;-69
2023/10/23 11:12:19;;;;;;;4.50;3.50;;;;;;;;;;5074558;28;20833;-70
2023/10/23 11:14:46;;;;;;;4.30;3.50;;;;;;;;;;5069127;28;20516;-72
2023/10/23 11:17:13;;;;;;;1.90;1.90;;;;;;;;;;5069640;28;20481;-68
2023/10/23 11:19:41;;;;;;;7.13;5.47;;;;;;;;;;5070484;28;20468;-70
2023/10/23 11:22:11;;;;;;;7.00;4.50;;;;;;;;;;5069550;28;20479;-71
2023/10/23 11:24:37;;;;;;;5.40;3.23;;;;;;;;;;5069212;28;20485;-69
2023/10/23 11:27:07;;;;;;;5.63;2.27;;;;;;;;;;5070294;28;20421;-69
2023/10/23 11:29:39;;;;;;;3.27;2.70;;;;;;;;;;5067847;28;20449;-72
2023/10/23 11:32:08;;;;;;;4.17;3.77;;;;;;;;;;5068775;28;20460;-72
2023/10/23 11:34:37;;;;;;;7.53;5.13;;;;;;;;;;5069412;28;20481;-70
2023/10/23 11:37:06;;;;;;;4.00;2.43;;;;;;;;;;5078470;28;20515;-71
2023/10/23 11:39:33;;;;;;;2.30;2.10;;;;;;;;;;5068374;28;20429;-68
2023/10/23 11:41:59;;;;;;;2.57;2.37;;;;;;;;;;5069757;28;20445;-69
2023/10/23 11:44:26;;;;;;;2.40;2.20;;;;;;;;;;5068405;28;20483;-70
2023/10/23 11:46:55;;;;;;;3.30;2.80;;;;;;;;;;5070184;28;20441;-70
2023/10/23 11:49:24;;;;;;;2.90;2.63;;;;;;;;;;5072544;28;20430;-68
2023/10/23 11:51:53;;;;;;;6.20;2.80;;;;;;;;;;5073374;28;20449;-73
2023/10/23 11:54:20;;;;;;;3.67;2.60;;;;;;;;;;5073965;28;20944;-68
2023/10/23 11:56:46;;;;;;;4.03;3.67;;;;;;;;;;5077145;28;20562;-72
2023/10/23 11:59:19;;;;;;;2.17;2.07;;;;;;;;;;5070435;28;20645;-74
2023/10/23 12:01:45;;;;;;;3.30;3.10;;;;;;;;;;5073223;28;20441;-68
2023/10/23 12:04:11;;;;;;;4.93;2.63;;;;;;;;;;5069579;28;20555;-69
2023/10/23 12:06:38;;;;;;;2.40;2.30;;;;;;;;;;5070887;28;20434;-70
2023/10/23 12:09:05;;;;;;;7.30;2.60;;;;;;;;;;5068328;28;20433;-72
2023/10/23 12:11:31;;;;;;;7.33;2.73;;;;;;;;;;5070681;28;20449;-71
2023/10/23 12:13:59;;;;;;;6.47;3.67;;;;;;;;;;5074081;28;20436;-69
2023/10/23 12:16:25;;;;;;;3.93;2.73;;;;;;;;;;5085442;28;20467;-70
2023/10/23 12:18:51;;;;;;;3.43;3.00;;;;;;;;;;5078569;28;20441;-70
2023/10/23 12:21:18;;;;;;;7.43;2.53;;;;;;;;;;5069346;28;20519;-69
2023/10/23 12:23:45;;;;;;;4.40;2.60;;;;;;;;;;5067812;28;20529;-71
2023/10/23 12:26:11;;;;;;;3.47;2.23;;;;;;;;;;5077154;28;20956;-70
2023/10/23 12:28:37;;;;;;;3.90;2.43;;;;;;;;;;5070657;28;20448;-74
2023/10/23 12:31:06;;;;;;;3.70;2.50;;;;;;;;;;5079666;28;20444;-75
2023/10/23 12:33:32;;;;;;;3.67;3.40;;;;;;;;;;5086981;28;20436;-71
2023/10/23 12:36:03;;;;;;;4.73;3.17;;;;;;;;;;5088444;28;20925;-70
2023/10/23 12:38:29;;;;;;;3.23;3.03;;;;;;;;;;5073330;28;20531;-73
2023/10/23 12:40:56;;;;;;;3.83;3.60;;;;;;;;;;5071019;28;20789;-71
2023/10/23 12:43:22;;;;;;;3.90;3.70;;;;;;;;;;5068414;28;20430;-72
2023/10/23 12:45:48;;;;;;;3.13;3.03;;;;;;;;;;5069012;28;20604;-69
2023/10/23 12:48:14;;;;;;;8.13;4.50;;;;;;;;;;5069724;28;20512;-68
2023/10/23 12:50:40;;;;;;;4.23;3.50;;;;;;;;;;5070500;28;20610;-71
2023/10/23 12:53:06;;;;;;;3.30;3.00;;;;;;;;;;5069135;28;20462;-70
2023/10/23 12:55:32;;;;;;;4.70;3.13;;;;;;;;;;5078395;28;20448;-72
2023/10/23 12:57:58;;;;;;;3.57;3.47;;;;;;;;;;5081239;28;21111;-69
2023/10/23 13:00:24;;;;;;;2.40;2.23;;;;;;;;;;5085261;28;20520;-69
2023/10/23 13:02:50;;;;;;;1.40;1.40;;;;;;;;;;5079471;28;20508;-71
2023/10/23 13:05:16;;;;;;;2.37;2.20;;;;;;;;;;5087500;28;20650;-69
2023/10/23 13:07:42;;;;;;;2.10;1.90;;;;;;;;;;5082347;28;20440;-69
2023/10/23 13:10:08;;;;;;;2.60;1.80;;;;;;;;;;5074588;28;20498;-69
2023/10/23 13:12:34;;;;;;;3.27;2.23;;;;;;;;;;5075944;28;20433;-69
2023/10/23 13:15:00;;;;;;;1.90;1.80;;;;;;;;;;5091591;28;20775;-69
2023/10/23 13:17:26;;;;;;;3.73;2.13;;;;;;;;;;5090037;28;20440;-67
2023/10/23 13:19:54;;;;;;;2.43;2.17;;;;;;;;;;5088203;28;20447;-71
2023/10/23 13:22:20;;;;;;;3.97;2.47;;;;;;;;;;5084676;28;20445;-71
2023/10/23 13:24:46;;;;;;;2.53;2.33;;;;;;;;;;5072925;28;21073;-72
2023/10/23 13:27:15;;;;;;;1.70;1.60;;;;;;;;;;5075660;28;20444;-70
2023/10/23 13:29:40;;;;;;;1.80;1.63;;;;;;;;;;5074343;28;20506;-72
2023/10/23 13:32:06;;;;;;;1.70;1.70;;;;;;;;;;5073809;28;22523;-70
2023/10/23 13:34:32;;;;;;;3.13;1.67;;;;;;;;;;5072708;28;20451;-72
2023/10/23 13:36:58;;;;;;;1.60;1.60;;;;;;;;;;5070044;28;20440;-71
2023/10/23 13:39:25;;;;;;;2.13;1.93;;;;;;;;;;5076833;28;20810;-71
2023/10/23 13:41:51;;;;;;;2.50;2.07;;;;;;;;;;5073514;28;21111;-72
2023/10/23 13:44:17;;;;;;;2.07;1.90;;;;;;;;;;5078880;28;20476;-73
2023/10/23 13:46:43;;;;;;;2.10;1.47;;;;;;;;;;5078524;28;20460;-71
2023/10/23 13:49:09;;;;;;;6.67;1.73;;;;;;;;;;5073106;28;20433;-68
2023/10/23 13:51:35;;;;;;;2.60;2.40;;;;;;;;;;5074824;28;20843;-69
2023/10/23 13:54:01;;;;;;;6.13;4.23;;;;;;;;;;5084177;28;20501;-69
2023/10/23 13:56:27;;;;;;;2.50;2.10;;;;;;;;;;5083066;28;20976;-68
2023/10/23 13:58:53;;;;;;;1.73;1.73;;;;;;;;;;5077415;28;20792;-69
2023/10/23 14:01:19;;;;;;;6.33;1.80;;;;;;;;;;5082468;28;20488;-71
2023/10/23 14:03:45;;;;;;;1.90;1.80;;;;;;;;;;5084840;28;20439;-71
2023/10/23 14:06:11;;;;;;;2.23;2.00;;;;;;;;;;5077606;28;21975;-72
2023/10/23 14:08:37;;;;;;;3.77;2.47;;;;;;;;;;5070921;28;20566;-70
2023/10/23 14:11:04;;;;;;;2.67;2.57;;;;;;;;;;5073674;28;20486;-70
2023/10/23 14:13:30;;;;;;;2.37;2.17;;;;;;;;;;5071321;28;20510;-69
2023/10/23 14:15:56;;;;;;;3.50;3.40;;;;;;;;;;5072197;28;20452;-68
2023/10/23 14:18:22;;;;;;;6.20;4.60;;;;;;;;;;5072589;28;20528;-70
2023/10/23 14:20:48;;;;;;;5.80;5.00;;;;;;;;;;5073129;28;20448;-68
2023/10/23 14:23:14;;;;;;;5.50;2.30;;;;;;;;;;5073823;28;20436;-68
2023/10/23 14:25:40;;;;;;;3.17;3.07;;;;;;;;;;5071229;28;21959;-70
2023/10/23 14:28:05;;;;;;;5.07;3.13;;;;;;;;;;5069580;28;20926;-68
2023/10/23 14:30:32;;;;;;;3.50;3.20;;;;;;;;;;5072033;28;20479;-68
2023/10/23 14:32:59;;;;;;;2.60;2.40;;;;;;;;;;5076191;28;20550;-68
2023/10/23 14:35:31;;;;;;;3.63;3.30;;;;;;;;;;5073720;28;21159;-72
2023/10/23 14:37:57;;;;;;;4.33;1.93;;;;;;;;;;5070162;28;20439;-70
2023/10/23 14:40:23;;;;;;;2.30;2.20;;;;;;;;;;5070412;28;20823;-70